Time;durP1;ratioP1;P1;durP2;ratioP2;P2;SDS_P1;SDS_P2;PMS_P1;PMS_P2;Temp;Humidity;BMP_temperature;BMP_pressure;BME280_temperature;BME280_humidity;BME280_pressure;Samples;Min_cycle;Max_cycle;Signal;HPM_P1;HPM_P2
2023/07/19 00:01:53;;;;;;;3.80;1.67;;;;;;;17.42;58.26;99770.50;10545883;28;20354;-74
2023/07/19 00:06:57;;;;;;;2.42;1.77;;;;;;;17.41;58.78;99766.16;10544241;28;20089;-75
2023/07/19 00:11:59;;;;;;;2.58;1.88;;;;;;;17.21;59.05;99763.91;10546159;28;20043;-74
2023/07/19 00:17:01;;;;;;;1.85;1.52;;;;;;;17.03;59.39;99753.47;10545674;28;20519;-75
2023/07/19 00:22:03;;;;;;;2.97;1.80;;;;;;;17.06;59.65;99748.00;10545123;28;20040;-74
2023/07/19 00:27:05;;;;;;;3.00;1.70;;;;;;;16.97;59.25;99745.91;10544753;28;20069;-74
2023/07/19 00:32:08;;;;;;;2.00;1.52;;;;;;;16.87;59.79;99750.09;10544412;28;20035;-74
2023/07/19 00:37:10;;;;;;;2.92;2.15;;;;;;;16.95;58.83;99750.44;10544260;28;20154;-74
2023/07/19 00:42:12;;;;;;;2.70;1.88;;;;;;;16.97;59.54;99756.53;10545186;28;20047;-74
2023/07/19 00:47:13;;;;;;;2.00;1.75;;;;;;;16.80;59.97;99744.31;10544222;28;20511;-74
2023/07/19 00:52:16;;;;;;;2.97;1.50;;;;;;;16.78;58.55;99743.56;10544646;28;20036;-74
2023/07/19 00:57:18;;;;;;;2.17;1.55;;;;;;;16.72;58.80;99737.72;10546051;28;20520;-74
2023/07/19 01:02:20;;;;;;;2.53;1.52;;;;;;;16.42;59.32;99733.34;10543904;28;20115;-74
2023/07/19 01:07:22;;;;;;;2.30;1.45;;;;;;;16.18;59.79;99724.22;10525042;28;20048;-74
2023/07/19 01:12:24;;;;;;;6.35;1.73;;;;;;;16.11;60.31;99724.59;10542794;28;20070;-74
2023/07/19 01:17:26;;;;;;;2.42;1.75;;;;;;;16.31;59.85;99711.94;10525630;28;20467;-74
2023/07/19 01:22:32;;;;;;;3.00;1.55;;;;;;;16.35;59.19;99708.16;10545499;28;20506;-74
2023/07/19 01:27:34;;;;;;;1.60;1.45;;;;;;;16.23;59.99;99698.28;10524941;28;20050;-75
2023/07/19 01:32:36;;;;;;;3.50;1.98;;;;;;;16.27;59.57;99697.16;10525051;28;20036;-74
2023/07/19 01:37:39;;;;;;;3.42;1.38;;;;;;;16.36;59.99;99699.25;10542770;28;20383;-74
2023/07/19 01:42:40;;;;;;;2.38;1.70;;;;;;;16.26;60.49;99701.59;10541963;28;20127;-75
2023/07/19 01:47:42;;;;;;;2.08;1.40;;;;;;;16.15;61.86;99694.28;10523325;28;20490;-75
2023/07/19 01:52:44;;;;;;;2.38;1.63;;;;;;;16.29;61.54;99696.13;10542165;28;20032;-75
2023/07/19 01:57:46;;;;;;;1.77;1.30;;;;;;;15.98;62.76;99696.22;10523414;28;20052;-74
2023/07/19 02:02:48;;;;;;;1.67;1.48;;;;;;;15.94;62.48;99697.34;10523618;28;20180;-74
2023/07/19 02:07:49;;;;;;;4.10;1.60;;;;;;;15.97;62.53;99695.38;10523819;28;20572;-75
2023/07/19 02:12:51;;;;;;;2.47;1.77;;;;;;;15.64;64.04;99679.69;10543218;28;20081;-74
2023/07/19 02:17:54;;;;;;;3.22;1.63;;;;;;;15.66;63.89;99691.03;10523058;28;20071;-74
2023/07/19 02:22:56;;;;;;;3.42;1.75;;;;;;;15.79;63.34;99681.41;10540344;28;20040;-74
2023/07/19 02:27:58;;;;;;;2.60;1.83;;;;;;;15.59;64.33;99677.28;10540350;28;20040;-75
2023/07/19 02:33:00;;;;;;;1.48;1.35;;;;;;;15.52;64.75;99678.56;10540863;28;20058;-74
2023/07/19 02:38:02;;;;;;;3.53;1.83;;;;;;;15.69;64.53;99690.88;10540825;28;20036;-75
2023/07/19 02:43:04;;;;;;;2.78;1.85;;;;;;;15.56;64.79;99685.38;10521791;28;20076;-74
2023/07/19 02:48:05;;;;;;;1.95;1.40;;;;;;;15.35;65.26;99678.66;10522109;28;20049;-74
2023/07/19 02:53:07;;;;;;;2.35;1.38;;;;;;;15.32;65.92;99671.78;10540132;28;20051;-75
2023/07/19 02:58:09;;;;;;;2.45;1.63;;;;;;;15.22;67.01;99667.06;10540911;28;20040;-74
2023/07/19 03:03:12;;;;;;;2.65;1.63;;;;;;;15.21;67.18;99674.16;10523418;28;20082;-74
2023/07/19 03:08:14;;;;;;;3.53;2.03;;;;;;;15.31;66.91;99675.34;10541043;28;20078;-74
2023/07/19 03:13:15;;;;;;;3.15;1.80;;;;;;;15.14;67.94;99668.38;10541688;28;20556;-75
2023/07/19 03:18:17;;;;;;;3.53;1.90;;;;;;;15.46;66.73;99672.78;10541443;28;20032;-75
2023/07/19 03:23:19;;;;;;;3.38;2.00;;;;;;;15.41;66.31;99672.19;10521773;28;20048;-75
2023/07/19 03:28:21;;;;;;;2.85;1.85;;;;;;;15.33;66.59;99668.16;10521276;28;20409;-74
2023/07/19 03:33:24;;;;;;;3.10;2.30;;;;;;;15.18;67.50;99670.81;10538871;28;20075;-75
2023/07/19 03:38:26;;;;;;;3.25;1.83;;;;;;;14.99;68.74;99673.66;10547475;28;20032;-74
2023/07/19 03:43:30;;;;;;;2.53;1.73;;;;;;;15.05;68.03;99678.59;10528069;28;20048;-75
2023/07/19 03:48:32;;;;;;;2.55;1.90;;;;;;;15.11;67.70;99678.28;10527861;28;20293;-74
2023/07/19 03:53:34;;;;;;;2.75;1.92;;;;;;;15.32;66.66;99660.31;10511430;28;20048;-74
2023/07/19 03:58:38;;;;;;;4.55;2.00;;;;;;;15.17;67.46;99669.13;10545815;28;20063;-75
2023/07/19 04:03:41;;;;;;;3.03;1.75;;;;;;;15.12;67.05;99672.88;10527503;28;20040;-75
2023/07/19 04:08:43;;;;;;;3.67;1.75;;;;;;;15.13;67.83;99663.16;10527148;28;20505;-75
2023/07/19 04:13:45;;;;;;;2.50;1.80;;;;;;;15.21;67.35;99663.56;10527211;28;20051;-75
2023/07/19 04:18:48;;;;;;;1.95;1.48;;;;;;;15.34;66.73;99667.22;10526757;28;20044;-74
2023/07/19 04:23:50;;;;;;;2.92;1.63;;;;;;;15.65;66.48;99662.84;10526686;28;20067;-74
2023/07/19 04:28:52;;;;;;;4.28;1.70;;;;;;;15.89;65.57;99664.06;10526699;28;20036;-74
2023/07/19 04:33:54;;;;;;;3.42;1.98;;;;;;;16.17;63.96;99665.03;10526215;28;20052;-74
2023/07/19 04:38:56;;;;;;;3.00;1.95;;;;;;;16.47;61.85;99667.63;10543921;28;20035;-75
2023/07/19 04:43:58;;;;;;;3.13;1.85;;;;;;;16.30;63.26;99673.97;10543763;28;20623;-75
2023/07/19 04:48:59;;;;;;;3.35;1.98;;;;;;;16.22;63.62;99665.59;10524628;28;20044;-75
2023/07/19 04:54:02;;;;;;;3.47;1.90;;;;;;;16.32;63.17;99661.44;10525282;28;20075;-74
2023/07/19 04:59:06;;;;;;;4.07;2.08;;;;;;;16.40;63.68;99656.50;10525522;28;20114;-75
2023/07/19 05:04:08;;;;;;;4.18;2.15;;;;;;;16.49;63.35;99651.59;10551033;28;20071;-76
2023/07/19 05:09:11;;;;;;;3.72;2.35;;;;;;;16.54;63.27;99657.47;10547165;28;20032;-74
2023/07/19 05:14:12;;;;;;;3.10;1.80;;;;;;;16.74;62.47;99648.28;10543443;28;20044;-74
2023/07/19 05:19:14;;;;;;;2.60;1.83;;;;;;;17.06;62.89;99654.19;10545167;28;20036;-75
2023/07/19 05:24:16;;;;;;;2.58;1.88;;;;;;;17.30;61.66;99655.25;10525582;28;20052;-74
2023/07/19 05:29:19;;;;;;;5.38;2.05;;;;;;;17.62;60.28;99653.13;10526017;28;20101;-74
2023/07/19 05:34:22;;;;;;;4.55;2.28;;;;;;;17.84;58.76;99647.25;10523955;28;20464;-74
2023/07/19 05:39:25;;;;;;;4.35;2.60;;;;;;;18.32;57.36;99646.63;10542460;28;20065;-74
2023/07/19 05:44:27;;;;;;;2.80;1.80;;;;;;;18.34;57.17;99642.06;10543642;28;20577;-74
2023/07/19 05:49:29;;;;;;;2.97;1.80;;;;;;;18.72;55.19;99646.50;10542996;28;20055;-73
2023/07/19 05:54:31;;;;;;;5.03;1.65;;;;;;;19.63;52.43;99642.44;10542787;28;20074;-74
2023/07/19 05:59:34;;;;;;;4.22;2.17;;;;;;;20.42;51.00;99642.59;10526358;28;20036;-74
2023/07/19 06:04:35;;;;;;;4.45;2.30;;;;;;;20.30;50.88;99630.19;10543487;28;20077;-75
2023/07/19 06:09:38;;;;;;;4.63;2.22;;;;;;;20.51;50.62;99625.03;10542748;28;20044;-75
2023/07/19 06:14:40;;;;;;;4.35;2.10;;;;;;;21.28;48.68;99617.81;10541953;28;20044;-74
2023/07/19 06:19:42;;;;;;;2.03;1.65;;;;;;;22.27;45.62;99634.47;10541454;28;20418;-73
2023/07/19 06:24:44;;;;;;;4.38;1.58;;;;;;;22.58;44.96;99619.28;10542653;28;20044;-76
2023/07/19 06:29:45;;;;;;;9.10;2.00;;;;;;;22.42;45.87;99620.63;10544597;28;20040;-75
2023/07/19 06:34:47;;;;;;;3.65;1.98;;;;;;;23.14;45.47;99611.53;10545424;28;20043;-75
2023/07/19 06:39:49;;;;;;;3.67;2.20;;;;;;;23.78;43.12;99604.81;10542685;28;20172;-75
2023/07/19 06:44:53;;;;;;;3.13;1.60;;;;;;;23.89;42.28;99606.47;10541148;28;20362;-76
2023/07/19 06:49:56;;;;;;;2.45;1.55;;;;;;;23.89;42.48;99609.16;10541920;28;20040;-75
2023/07/19 06:54:58;;;;;;;14.07;2.00;;;;;;;24.28;41.79;99604.53;10543480;28;20052;-75
2023/07/19 07:00:00;;;;;;;3.40;1.85;;;;;;;24.79;41.19;99605.03;10541554;28;20115;-75
2023/07/19 07:05:02;;;;;;;4.68;1.75;;;;;;;24.88;40.86;99601.44;10541551;28;20036;-75
2023/07/19 07:10:08;;;;;;;4.75;1.75;;;;;;;25.38;40.33;99595.59;10544693;28;20064;-75
2023/07/19 07:15:10;;;;;;;3.20;1.80;;;;;;;25.78;39.93;99603.22;10533567;28;20044;-75
2023/07/19 07:20:12;;;;;;;3.35;2.38;;;;;;;25.14;39.57;99598.88;10549333;28;20505;-76
2023/07/19 07:25:16;;;;;;;1.92;1.30;;;;;;;25.45;39.93;99601.19;10551132;28;20044;-75
2023/07/19 07:30:19;;;;;;;2.88;1.50;;;;;;;25.89;38.31;99597.56;10548180;28;20123;-75
2023/07/19 07:35:21;;;;;;;3.35;1.65;;;;;;;25.76;41.54;99596.25;10546859;28;20066;-75
2023/07/19 07:40:23;;;;;;;5.25;1.67;;;;;;;26.13;38.63;99590.66;10547703;28;20040;-76
2023/07/19 07:45:25;;;;;;;4.95;1.90;;;;;;;26.59;38.03;99596.63;10548501;28;20118;-75
2023/07/19 07:50:27;;;;;;;3.72;1.55;;;;;;;26.74;38.84;99581.53;10548023;28;20036;-75
2023/07/19 07:55:29;;;;;;;3.28;1.55;;;;;;;26.64;37.56;99581.66;10555342;28;20071;-76
2023/07/19 08:00:31;;;;;;;4.68;1.58;;;;;;;27.06;36.94;99571.84;10554978;28;20048;-76
2023/07/19 08:05:34;;;;;;;2.20;1.30;;;;;;;27.56;34.20;99577.13;10553933;28;20463;-76
2023/07/19 08:10:38;;;;;;;3.10;1.70;;;;;;;27.40;36.06;99571.72;10553404;28;20047;-76
2023/07/19 08:15:40;;;;;;;2.85;1.48;;;;;;;27.46;34.50;99560.28;10558358;28;20048;-76
2023/07/19 08:20:42;;;;;;;2.75;1.40;;;;;;;27.66;33.50;99558.91;10559229;28;20046;-76
2023/07/19 08:25:45;;;;;;;2.38;1.33;;;;;;;27.54;32.67;99545.94;10558526;28;20043;-74
2023/07/19 08:30:47;;;;;;;3.17;1.67;;;;;;;28.30;32.15;99540.06;10556347;28;20375;-75
2023/07/19 08:35:51;;;;;;;2.78;1.27;;;;;;;28.61;31.31;99547.38;10563025;28;20044;-75
2023/07/19 08:41:00;;;;;;;3.95;1.40;;;;;;;28.85;30.31;99527.47;10558488;28;20490;-76
2023/07/19 08:46:03;;;;;;;2.05;1.50;;;;;;;28.69;30.16;99527.56;10549558;28;20448;-76
2023/07/19 08:51:06;;;;;;;3.90;1.50;;;;;;;28.78;30.64;99531.91;10543525;28;20127;-76
2023/07/19 08:56:09;;;;;;;4.40;1.60;;;;;;;28.71;30.90;99523.66;10543452;28;20099;-75
2023/07/19 09:01:14;;;;;;;3.17;1.48;;;;;;;28.38;30.14;99521.13;10545194;28;20048;-75
2023/07/19 09:06:26;;;;;;;5.20;1.48;;;;;;;28.16;31.54;99525.41;10543765;28;20048;-75
2023/07/19 09:11:28;;;;;;;4.10;1.60;;;;;;;28.59;30.89;99515.09;10543293;28;20201;-74
2023/07/19 09:16:32;;;;;;;3.28;1.58;;;;;;;28.18;30.71;99525.22;10524822;28;20043;-74
2023/07/19 09:21:36;;;;;;;2.13;1.50;;;;;;;28.03;30.90;99511.63;10542386;28;20420;-75
2023/07/19 09:26:46;;;;;;;2.67;1.30;;;;;;;28.78;29.90;99508.41;10542240;28;20047;-75
2023/07/19 09:31:53;;;;;;;1.42;1.10;;;;;;;29.28;29.80;99512.47;10541810;28;20036;-74
2023/07/19 09:36:55;;;;;;;2.85;1.40;;;;;;;29.76;28.54;99506.81;10541851;28;20485;-73
2023/07/19 09:41:57;;;;;;;4.38;1.30;;;;;;;29.00;29.45;99514.91;10541763;28;20405;-74
2023/07/19 09:47:00;;;;;;;1.83;1.38;;;;;;;28.51;30.25;99514.28;10542385;28;20097;-75
2023/07/19 09:52:18;;;;;;;5.43;2.00;;;;;;;28.89;30.03;99512.56;10541520;28;20478;-75
2023/07/19 09:57:27;;;;;;;1.70;1.30;;;;;;;29.64;28.81;99511.84;10523038;28;20101;-75
2023/07/19 10:02:29;;;;;;;3.30;1.55;;;;;;;29.97;27.79;99495.22;10541699;28;20051;-75
2023/07/19 10:07:31;;;;;;;2.92;1.30;;;;;;;29.49;28.39;99498.25;10540585;28;20071;-74
2023/07/19 10:12:51;;;;;;;2.13;1.30;;;;;;;30.09;29.32;99500.00;10508577;28;20086;-74
2023/07/19 10:17:55;;;;;;;3.42;1.63;;;;;;;30.14;28.25;99484.03;10540537;28;20441;-75
2023/07/19 10:23:08;;;;;;;3.10;1.58;;;;;;;30.92;28.24;99483.53;10541172;28;20371;-74
2023/07/19 10:28:13;;;;;;;2.15;1.50;;;;;;;29.88;29.15;99476.38;10540171;28;20048;-76
2023/07/19 10:33:22;;;;;;;6.75;1.40;;;;;;;29.48;28.62;99472.19;10540210;28;20116;-75
2023/07/19 10:38:26;;;;;;;6.25;1.40;;;;;;;29.42;30.02;99464.81;10541083;28;20040;-75
2023/07/19 10:43:32;;;;;;;3.20;1.42;;;;;;;28.64;30.18;99449.66;10541077;28;20040;-75
2023/07/19 10:48:38;;;;;;;2.97;1.77;;;;;;;28.34;30.62;99454.06;10540107;28;20042;-75
2023/07/19 10:53:48;;;;;;;2.85;1.60;;;;;;;29.00;29.60;99439.13;10540773;28;20072;-75
2023/07/19 10:58:50;;;;;;;2.85;1.75;;;;;;;29.61;29.62;99441.78;10522902;28;20134;-75
2023/07/19 11:03:51;;;;;;;2.60;1.50;;;;;;;29.78;29.18;99437.03;10539221;28;20077;-76
2023/07/19 11:09:02;;;;;;;4.90;1.48;;;;;;;30.27;28.37;99433.72;10539354;28;20119;-75
2023/07/19 11:14:04;;;;;;;3.53;1.50;;;;;;;30.45;28.78;99431.44;10539760;28;20127;-75
2023/07/19 11:19:06;;;;;;;2.47;1.42;;;;;;;30.63;27.43;99439.13;10539813;28;20048;-76
2023/07/19 11:24:08;;;;;;;1.83;1.38;;;;;;;30.45;27.76;99436.03;10522161;28;20086;-76
2023/07/19 11:29:10;;;;;;;2.65;1.50;;;;;;;30.17;27.98;99433.19;10538985;28;20127;-75
2023/07/19 11:34:14;;;;;;;4.80;4.28;;;;;;;29.95;28.31;99429.56;10540771;28;20059;-76
2023/07/19 11:39:21;;;;;;;6.10;3.05;;;;;;;31.10;29.55;99427.72;10541060;28;20108;-76
2023/07/19 11:44:23;;;;;;;5.88;1.80;;;;;;;30.77;27.64;99416.59;10538827;28;20071;-76
2023/07/19 11:49:25;;;;;;;3.75;1.60;;;;;;;30.88;27.87;99424.19;10538410;28;20094;-74
2023/07/19 11:54:28;;;;;;;3.72;1.67;;;;;;;30.32;29.02;99407.72;10538888;28;20040;-76
2023/07/19 11:59:30;;;;;;;2.03;1.52;;;;;;;30.77;28.67;99422.03;10545634;28;20127;-77
2023/07/19 12:04:32;;;;;;;3.03;1.70;;;;;;;30.36;29.37;99414.44;10545854;28;20044;-77
2023/07/19 12:09:33;;;;;;;3.30;1.27;;;;;;;30.00;29.89;99406.28;10526710;28;20123;-76
2023/07/19 12:14:35;;;;;;;6.00;1.80;;;;;;;29.82;28.85;99416.66;10545675;28;20044;-77
2023/07/19 12:19:37;;;;;;;2.17;1.20;;;;;;;30.35;29.16;99410.06;10545238;28;20048;-74
2023/07/19 12:24:38;;;;;;;2.35;1.50;;;;;;;29.99;28.58;99393.75;10545161;28;20124;-76
2023/07/19 12:29:40;;;;;;;2.95;1.70;;;;;;;29.74;29.31;99397.78;10545917;28;20071;-77
2023/07/19 12:34:58;;;;;;;2.95;1.80;;;;;;;30.76;28.27;99389.63;10545131;28;20048;-76
2023/07/19 12:40:00;;;;;;;2.83;1.42;;;;;;;31.13;27.60;99397.50;10544214;28;20047;-76
2023/07/19 12:45:02;;;;;;;3.22;1.33;;;;;;;30.62;27.76;99392.19;10544262;28;20071;-76
2023/07/19 12:50:05;;;;;;;3.50;1.75;;;;;;;30.75;26.78;99388.78;10543549;28;20126;-77
2023/07/19 12:55:07;;;;;;;1.60;1.50;;;;;;;30.65;27.45;99377.41;10545133;28;20401;-76
2023/07/19 13:00:13;;;;;;;4.18;1.70;;;;;;;30.00;28.07;99379.16;10543563;28;20040;-76
2023/07/19 13:05:15;;;;;;;3.88;1.50;;;;;;;29.45;28.83;99375.09;10543712;28;20083;-76
2023/07/19 13:10:17;;;;;;;3.75;1.60;;;;;;;29.56;29.25;99368.38;10542245;28;20444;-75
2023/07/19 13:15:19;;;;;;;2.30;1.40;;;;;;;29.95;29.84;99353.69;10526829;28;20123;-75
2023/07/19 13:20:20;;;;;;;3.10;1.30;;;;;;;30.44;28.96;99361.13;10542286;28;20093;-75
2023/07/19 13:25:22;;;;;;;3.42;1.08;;;;;;;29.74;28.63;99349.03;10542241;28;20123;-75
2023/07/19 13:30:24;;;;;;;2.85;1.17;;;;;;;30.00;27.84;99341.22;10542814;28;20036;-75
2023/07/19 13:35:26;;;;;;;4.35;1.30;;;;;;;30.02;28.03;99346.47;10542077;28;20040;-75
2023/07/19 13:40:30;;;;;;;1.33;1.17;;;;;;;30.53;27.09;99343.69;10541981;28;20040;-73
2023/07/19 13:45:33;;;;;;;2.85;1.20;;;;;;;30.73;26.41;99343.94;10541470;28;20059;-74
2023/07/19 13:50:36;;;;;;;1.42;1.25;;;;;;;30.62;26.06;99329.81;10540987;28;20436;-75
2023/07/19 13:55:38;;;;;;;1.17;1.08;;;;;;;29.37;26.79;99326.44;10542356;28;20044;-75
2023/07/19 14:00:40;;;;;;;3.47;1.52;;;;;;;29.20;27.42;99324.94;10541494;28;20402;-75
2023/07/19 14:05:42;;;;;;;1.55;1.30;;;;;;;29.55;27.27;99316.09;10542742;28;20040;-76
2023/07/19 14:10:43;;;;;;;1.95;1.40;;;;;;;29.83;27.35;99309.97;10523928;28;20543;-76
2023/07/19 14:15:45;;;;;;;2.58;1.25;;;;;;;29.81;27.10;99306.63;10541372;28;20040;-75
2023/07/19 14:20:49;;;;;;;1.60;1.38;;;;;;;29.89;26.69;99318.19;10540330;28;20119;-76
2023/07/19 14:25:50;;;;;;;2.42;1.20;;;;;;;29.86;27.39;99313.16;10540147;28;20054;-75
2023/07/19 14:30:52;;;;;;;4.82;1.27;;;;;;;29.90;27.30;99311.75;10541188;28;20036;-75
2023/07/19 14:35:55;;;;;;;2.03;1.20;;;;;;;29.51;27.44;99309.34;10550465;28;20052;-75
2023/07/19 14:40:58;;;;;;;3.28;1.40;;;;;;;29.25;27.83;99314.41;10548526;28;20115;-76
2023/07/19 14:46:03;;;;;;;2.97;1.15;;;;;;;29.74;27.59;99317.38;10548078;28;20048;-76
2023/07/19 14:51:06;;;;;;;3.45;1.38;;;;;;;29.45;28.31;99314.69;10531828;28;20047;-75
2023/07/19 14:56:08;;;;;;;2.28;1.33;;;;;;;29.63;28.64;99320.59;10547199;28;20071;-76
2023/07/19 15:01:10;;;;;;;2.05;1.17;;;;;;;28.83;28.99;99323.94;10548179;28;20043;-77
2023/07/19 15:06:14;;;;;;;6.68;1.30;;;;;;;28.12;30.11;99332.22;10533469;28;20048;-76
2023/07/19 15:11:16;;;;;;;3.08;1.42;;;;;;;28.45;30.07;99329.31;10532803;28;20039;-78
2023/07/19 15:16:18;;;;;;;3.88;1.50;;;;;;;28.29;30.44;99332.09;10549724;28;20052;-74
2023/07/19 15:21:21;;;;;;;2.97;1.50;;;;;;;27.90;30.58;99328.47;10534588;28;20510;-73
2023/07/19 15:26:25;;;;;;;2.95;1.20;;;;;;;27.60;31.23;99332.81;10528661;28;20055;-75
2023/07/19 15:31:38;;;;;;;2.47;1.17;;;;;;;27.67;31.16;99330.25;10556391;28;20067;-74
2023/07/19 15:36:40;;;;;;;2.43;1.30;;;;;;;27.56;32.26;99352.22;10558628;28;20059;-73
2023/07/19 15:41:42;;;;;;;4.88;1.20;;;;;;;27.28;32.38;99341.03;10556886;28;20063;-76
2023/07/19 15:46:47;;;;;;;4.72;1.48;;;;;;;26.72;32.67;99358.94;10541582;28;20040;-75
2023/07/19 15:51:50;;;;;;;5.18;1.50;;;;;;;26.51;33.36;99359.41;10554482;28;20499;-74
2023/07/19 15:56:52;;;;;;;5.05;1.48;;;;;;;26.31;34.03;99358.88;10554252;28;20036;-75
2023/07/19 16:01:55;;;;;;;1.52;1.40;;;;;;;25.70;34.87;99368.91;10540393;28;20046;-75
2023/07/19 16:06:58;;;;;;;3.53;1.35;;;;;;;25.55;35.40;99359.78;10553452;28;20039;-75
2023/07/19 16:12:00;;;;;;;1.73;1.10;;;;;;;25.49;35.74;99363.09;10555495;28;20047;-75
2023/07/19 16:17:03;;;;;;;3.08;1.30;;;;;;;25.46;35.85;99366.97;10558372;28;20498;-76
2023/07/19 16:22:05;;;;;;;2.35;0.93;;;;;;;25.11;35.81;99379.53;10555517;28;20135;-75
2023/07/19 16:27:08;;;;;;;1.60;0.80;;;;;;;25.08;36.72;99376.31;10552199;28;20047;-75
2023/07/19 16:32:10;;;;;;;1.48;0.80;;;;;;;24.73;36.75;99390.63;10558475;28;20075;-74
2023/07/19 16:37:12;;;;;;;0.68;0.60;;;;;;;24.59;37.43;99392.00;10528068;28;20047;-74
2023/07/19 16:42:14;;;;;;;4.32;1.00;;;;;;;24.63;37.42;99396.09;10543908;28;20040;-74
2023/07/19 16:47:16;;;;;;;0.88;0.80;;;;;;;24.57;37.10;99399.38;10544996;28;20391;-74
2023/07/19 16:52:18;;;;;;;1.20;1.08;;;;;;;24.38;37.72;99401.22;10544841;28;20047;-76
2023/07/19 16:57:20;;;;;;;0.70;0.70;;;;;;;23.96;37.96;99405.44;10544460;28;20075;-75
2023/07/19 17:02:22;;;;;;;0.73;0.70;;;;;;;23.94;38.12;99400.19;10546149;28;20047;-74
2023/07/19 17:07:24;;;;;;;2.72;0.68;;;;;;;23.81;38.44;99399.69;10546265;28;20040;-74
2023/07/19 17:12:26;;;;;;;1.75;0.80;;;;;;;23.67;38.24;99391.13;10547018;28;20089;-74
2023/07/19 17:17:28;;;;;;;1.98;0.90;;;;;;;23.60;39.03;99398.06;10511207;28;20050;-74
2023/07/19 17:22:30;;;;;;;3.47;0.85;;;;;;;23.55;39.07;99397.66;10546241;28;20498;-76
2023/07/19 17:27:33;;;;;;;2.28;0.90;;;;;;;23.34;39.25;99397.03;10544522;28;20363;-75
2023/07/19 17:32:42;;;;;;;2.17;1.05;;;;;;;23.13;39.72;99403.41;10546678;28;20036;-75
2023/07/19 17:37:48;;;;;;;6.20;1.00;;;;;;;23.08;40.23;99407.53;10546302;28;20044;-74
2023/07/19 17:42:50;;;;;;;4.15;1.40;;;;;;;22.80;42.79;99401.16;10511011;28;20135;-74
2023/07/19 17:47:52;;;;;;;5.00;2.50;;;;;;;22.04;53.33;99412.47;10544508;28;20043;-73
2023/07/19 17:52:54;;;;;;;4.43;1.50;;;;;;;21.48;56.94;99414.81;10520963;28;20044;-73
2023/07/19 17:57:56;;;;;;;4.05;1.52;;;;;;;21.42;60.97;99405.47;10545090;28;20048;-73
2023/07/19 18:02:58;;;;;;;2.13;1.20;;;;;;;21.14;63.04;99402.47;10525631;28;20040;-72
2023/07/19 18:08:00;;;;;;;4.15;1.65;;;;;;;20.88;68.57;99417.22;10543510;28;20101;-72
2023/07/19 18:13:21;;;;;;;2.72;1.20;;;;;;;20.54;72.12;99444.06;10543653;28;20498;-73
2023/07/19 18:18:23;;;;;;;3.00;1.30;;;;;;;20.46;73.78;99453.66;10543983;28;20047;-73
2023/07/19 18:23:25;;;;;;;3.00;1.45;;;;;;;20.45;72.15;99450.13;10544210;28;20051;-72
2023/07/19 18:28:27;;;;;;;1.92;1.30;;;;;;;20.40;75.12;99444.31;10544667;28;20044;-73
2023/07/19 18:33:32;;;;;;;1.80;1.60;;;;;;;20.17;76.39;99440.84;10542476;28;20040;-73
2023/07/19 18:38:37;;;;;;;1.90;1.48;;;;;;;20.10;76.70;99416.50;10544986;28;20052;-74
2023/07/19 18:43:39;;;;;;;2.08;1.20;;;;;;;20.17;71.90;99425.69;10544638;28;20047;-74
2023/07/19 18:48:41;;;;;;;1.58;1.15;;;;;;;20.00;74.00;99417.34;10526813;28;20048;-73
2023/07/19 18:53:47;;;;;;;2.20;2.00;;;;;;;19.83;72.49;99416.03;10525014;28;20162;-73
2023/07/19 18:58:50;;;;;;;;;;;;;;;20.16;69.66;99439.16;10527099;28;20038;-73
2023/07/19 19:03:53;;;;;;;3.70;1.30;;;;;;;20.16;71.81;99449.84;10525501;28;19927;-74
2023/07/19 19:09:10;;;;;;;2.88;1.63;;;;;;;19.95;74.55;99497.75;10516858;28;20040;-74
2023/07/19 19:14:12;;;;;;;1.67;1.45;;;;;;;19.85;80.05;99526.97;10533103;28;20036;-73
2023/07/19 19:19:14;;;;;;;4.90;1.73;;;;;;;19.71;80.23;99547.69;10550446;28;20064;-74
2023/07/19 19:24:16;;;;;;;3.60;1.77;;;;;;;19.01;82.59;99538.69;10548878;28;20036;-73
2023/07/19 19:29:18;;;;;;;3.20;1.65;;;;;;;18.54;87.04;99531.50;10531366;28;20048;-72
2023/07/19 19:34:21;;;;;;;4.32;1.92;;;;;;;18.32;92.60;99522.41;10551544;28;20122;-75
2023/07/19 19:39:27;;;;;;;3.45;2.58;;;;;;;18.09;97.13;99512.56;10550399;28;20048;-72
2023/07/19 19:44:31;;;;;;;2.17;1.75;;;;;;;18.11;97.28;99503.53;10551063;28;20048;-73
2023/07/19 19:49:33;;;;;;;2.92;1.83;;;;;;;18.04;97.53;99512.91;10554676;28;20068;-72
2023/07/19 19:54:36;;;;;;;3.00;1.98;;;;;;;17.97;98.18;99532.91;10555216;28;20038;-72
2023/07/19 19:59:38;;;;;;;2.78;2.10;;;;;;;17.88;100.00;99537.06;10536644;28;20048;-72
2023/07/19 20:04:40;;;;;;;3.08;1.90;;;;;;;17.89;99.08;99544.09;10536291;28;20043;-71
2023/07/19 20:09:43;;;;;;;1.85;1.75;;;;;;;17.71;100.00;99524.06;10533399;28;20056;-71
2023/07/19 20:15:01;;;;;;;2.28;1.90;;;;;;;17.65;100.00;99511.19;10539149;28;20087;-70
2023/07/19 20:20:05;;;;;;;2.47;2.15;;;;;;;17.58;100.00;99497.50;10549931;28;20098;-70
2023/07/19 20:25:20;;;;;;;3.83;2.88;;;;;;;17.48;100.00;99483.13;10548986;28;20047;-71
2023/07/19 20:30:43;;;;;;;4.78;2.97;;;;;;;17.53;100.00;99483.66;10555702;28;20040;-70
2023/07/19 20:35:54;;;;;;;3.17;2.40;;;;;;;17.52;100.00;99475.78;10554024;28;20044;-70
2023/07/19 20:40:59;;;;;;;4.22;2.80;;;;;;;17.45;100.00;99463.91;10536927;28;20040;-70
2023/07/19 20:46:04;;;;;;;4.78;2.50;;;;;;;17.50;100.00;99438.72;10559339;28;20032;-71
2023/07/19 20:51:11;;;;;;;3.90;3.13;;;;;;;17.46;100.00;99447.00;10549383;28;20137;-71
2023/07/19 20:56:13;;;;;;;3.33;3.00;;;;;;;17.42;100.00;99470.25;10544120;28;20040;-70
2023/07/19 21:01:15;;;;;;;3.50;2.97;;;;;;;17.45;100.00;99461.25;10546828;28;20081;-71
2023/07/19 21:06:16;;;;;;;4.63;3.65;;;;;;;17.78;100.00;99458.06;10544635;28;20036;-71
2023/07/19 21:11:19;;;;;;;3.80;2.65;;;;;;;17.89;100.00;99466.13;10544129;28;20101;-71
2023/07/19 21:16:21;;;;;;;2.88;2.60;;;;;;;17.77;100.00;99456.38;10544514;28;20547;-71
2023/07/19 21:21:23;;;;;;;2.65;2.15;;;;;;;17.73;100.00;99446.88;10544485;28;20454;-72
2023/07/19 21:26:25;;;;;;;2.88;2.58;;;;;;;17.70;100.00;99431.97;10542917;28;20050;-71
2023/07/19 21:31:27;;;;;;;4.20;3.08;;;;;;;17.50;100.00;99420.09;10543084;28;20040;-71
2023/07/19 21:36:30;;;;;;;3.63;2.97;;;;;;;17.32;100.00;99432.00;10544524;28;20131;-71
2023/07/19 21:41:31;;;;;;;3.72;2.65;;;;;;;17.36;100.00;99433.50;10543729;28;20040;-73
2023/07/19 21:46:33;;;;;;;3.78;2.78;;;;;;;17.57;100.00;99431.97;10542582;28;20040;-71
2023/07/19 21:51:35;;;;;;;3.55;3.00;;;;;;;17.61;100.00;99430.81;10541544;28;20040;-71
2023/07/19 21:56:37;;;;;;;3.20;2.90;;;;;;;17.63;100.00;99423.59;10542164;28;20410;-72
2023/07/19 22:01:38;;;;;;;5.50;2.90;;;;;;;17.81;100.00;99428.59;10542977;28;20032;-72
2023/07/19 22:06:40;;;;;;;3.28;2.75;;;;;;;17.53;100.00;99440.28;10523390;28;20414;-71
2023/07/19 22:11:42;;;;;;;3.75;2.88;;;;;;;17.50;100.00;99444.03;10523183;28;20046;-71
2023/07/19 22:16:44;;;;;;;3.58;3.13;;;;;;;17.56;100.00;99438.25;10541730;28;20040;-71
2023/07/19 22:21:46;;;;;;;3.17;2.47;;;;;;;17.49;100.00;99436.16;10540907;28;20481;-71
2023/07/19 22:26:48;;;;;;;2.60;2.33;;;;;;;17.23;100.00;99436.16;10541277;28;20051;-71
2023/07/19 22:31:49;;;;;;;3.65;2.90;;;;;;;17.09;100.00;99434.44;10541050;28;20036;-71
2023/07/19 22:36:51;;;;;;;3.05;2.67;;;;;;;17.04;100.00;99444.50;10540745;28;20044;-72
2023/07/19 22:41:53;;;;;;;2.78;2.58;;;;;;;17.10;100.00;99456.53;10539686;28;20036;-72
2023/07/19 22:46:55;;;;;;;3.15;2.53;;;;;;;17.03;100.00;99455.25;10541419;28;20073;-71
2023/07/19 22:51:56;;;;;;;2.75;2.40;;;;;;;17.05;100.00;99456.00;10540614;28;20059;-71
2023/07/19 22:56:58;;;;;;;3.35;2.05;;;;;;;16.86;100.00;99467.84;10541008;28;20482;-71
2023/07/19 23:02:00;;;;;;;3.50;2.13;;;;;;;17.15;100.00;99484.47;10542185;28;20124;-71
2023/07/19 23:07:03;;;;;;;3.88;2.30;;;;;;;17.02;100.00;99502.19;10540653;28;20110;-71
2023/07/19 23:12:05;;;;;;;4.32;2.88;;;;;;;17.11;100.00;99498.06;10539480;28;20044;-71
2023/07/19 23:17:07;;;;;;;4.05;3.42;;;;;;;16.96;100.00;99499.09;10539339;28;20040;-72
2023/07/19 23:22:09;;;;;;;5.97;3.38;;;;;;;17.11;100.00;99506.03;10539038;28;20074;-71
2023/07/19 23:27:11;;;;;;;5.13;3.05;;;;;;;17.08;100.00;99499.09;10540136;28;20183;-71